Time;durP1;ratioP1;P1;durP2;ratioP2;P2;SDS_P1;SDS_P2;PMS_P1;PMS_P2;Temp;Humidity;BMP_temperature;BMP_pressure;BME280_temperature;BME280_humidity;BME280_pressure;Samples;Min_cycle;Max_cycle;Signal;HPM_P1;HPM_P2
2023/12/06 00:00:01;;;;;;;18.90;14.63;;;;;21.10;99788.00;;;;2059810;28;20571;-58
2023/12/06 00:01:01;;;;;;;19.43;15.50;;;;;21.10;99750.00;;;;2068715;28;20699;-57
2023/12/06 00:02:02;;;;;;;17.70;14.70;;;;;21.00;99737.00;;;;2069854;28;20671;-58
2023/12/06 00:03:03;;;;;;;16.00;14.02;;;;;21.00;99749.00;;;;2066266;28;20210;-57
2023/12/06 00:04:03;;;;;;;19.13;14.57;;;;;21.00;99745.00;;;;2069025;28;20650;-57
2023/12/06 00:05:04;;;;;;;18.27;15.43;;;;;21.00;99744.00;;;;2059105;28;20333;-57
2023/12/06 00:06:05;;;;;;;17.20;14.30;;;;;21.00;99738.00;;;;2069812;28;20221;-58
2023/12/06 00:07:05;;;;;;;16.80;13.60;;;;;21.00;99742.00;;;;2069827;28;20221;-58
2023/12/06 00:08:05;;;;;;;15.43;13.00;;;;;21.00;99749.00;;;;2058546;28;20218;-56
2023/12/06 00:09:06;;;;;;;16.50;13.77;;;;;21.00;99742.00;;;;2069073;28;20210;-58
2023/12/06 00:10:07;;;;;;;15.67;13.13;;;;;21.00;99747.00;;;;2058516;28;20252;-58
2023/12/06 00:11:07;;;;;;;17.33;12.57;;;;;21.00;99753.00;;;;2075723;28;20221;-58
2023/12/06 00:12:07;;;;;;;15.60;13.67;;;;;21.00;99752.00;;;;2071362;28;20465;-57
2023/12/06 00:13:08;;;;;;;15.43;12.83;;;;;21.00;99751.00;;;;2069455;28;20221;-57
2023/12/06 00:14:08;;;;;;;16.40;13.37;;;;;21.00;99751.00;;;;2069471;28;20213;-57
2023/12/06 00:15:09;;;;;;;18.30;14.77;;;;;21.00;99752.00;;;;2059188;28;20228;-57
2023/12/06 00:16:09;;;;;;;14.17;12.37;;;;;21.00;99755.00;;;;2069392;28;20218;-58
2023/12/06 00:17:10;;;;;;;16.03;13.00;;;;;21.00;99752.00;;;;2069154;28;20225;-57
2023/12/06 00:18:10;;;;;;;16.58;13.98;;;;;21.00;99753.00;;;;2068317;28;20321;-57
2023/12/06 00:19:11;;;;;;;16.20;13.43;;;;;21.00;99752.00;;;;2069861;28;20993;-58
2023/12/06 00:20:11;;;;;;;15.43;13.37;;;;;20.90;99761.00;;;;2059492;28;20800;-58
2023/12/06 00:21:12;;;;;;;13.67;12.20;;;;;20.90;99752.00;;;;2069756;28;20253;-57
2023/12/06 00:22:12;;;;;;;14.20;12.70;;;;;20.90;99758.00;;;;2066659;28;20234;-56
2023/12/06 00:23:12;;;;;;;17.23;13.40;;;;;21.00;99768.00;;;;2069613;28;20225;-57
2023/12/06 00:24:13;;;;;;;15.10;13.10;;;;;20.90;99761.00;;;;2068945;28;20230;-58
2023/12/06 00:25:13;;;;;;;15.70;13.00;;;;;20.90;99759.00;;;;2059904;28;20218;-57
2023/12/06 00:26:13;;;;;;;17.00;13.50;;;;;20.90;99755.00;;;;2069703;28;20237;-58
2023/12/06 00:27:14;;;;;;;16.77;14.00;;;;;20.90;99761.00;;;;2068879;28;20344;-57
2023/12/06 00:28:14;;;;;;;15.53;12.30;;;;;20.90;99754.00;;;;2066209;28;20269;-57
2023/12/06 00:29:15;;;;;;;14.03;12.23;;;;;20.90;99761.00;;;;2068106;28;20226;-56
2023/12/06 00:30:15;;;;;;;14.73;13.13;;;;;20.90;99767.00;;;;2059963;28;20221;-57
2023/12/06 00:31:15;;;;;;;15.17;12.10;;;;;20.90;99763.00;;;;2069211;28;20218;-58
2023/12/06 00:32:16;;;;;;;15.77;12.63;;;;;20.90;99769.00;;;;2064616;28;20216;-58
2023/12/06 00:33:16;;;;;;;14.23;11.70;;;;;20.90;99770.00;;;;2065365;28;20232;-58
2023/12/06 00:34:16;;;;;;;14.50;11.23;;;;;20.90;99765.00;;;;2068784;28;20214;-58
2023/12/06 00:35:17;;;;;;;14.47;12.10;;;;;20.90;99768.00;;;;2059662;28;20625;-57
2023/12/06 00:36:17;;;;;;;15.27;12.90;;;;;20.90;99770.00;;;;2069212;28;20284;-57
2023/12/06 00:37:17;;;;;;;16.83;12.37;;;;;20.90;99763.00;;;;2060037;28;20214;-57
2023/12/06 00:38:18;;;;;;;14.43;12.00;;;;;20.90;99779.00;;;;2068715;28;20241;-58
2023/12/06 00:39:18;;;;;;;15.90;12.43;;;;;20.90;99776.00;;;;2064877;28;20831;-58
2023/12/06 00:40:18;;;;;;;13.70;11.77;;;;;20.90;99774.00;;;;2059318;28;20226;-57
2023/12/06 00:41:19;;;;;;;14.37;11.70;;;;;20.90;99768.00;;;;2067838;28;20221;-57
2023/12/06 00:42:19;;;;;;;15.60;12.07;;;;;20.90;99774.00;;;;2068351;28;20225;-57
2023/12/06 00:43:19;;;;;;;14.90;12.20;;;;;20.90;99778.00;;;;2068998;28;20220;-57
2023/12/06 00:44:19;;;;;;;13.50;11.53;;;;;20.90;99767.00;;;;2069482;28;20251;-56
2023/12/06 00:45:20;;;;;;;13.63;11.90;;;;;20.80;99768.00;;;;2059520;28;20356;-57
2023/12/06 00:46:20;;;;;;;13.63;11.73;;;;;20.80;99774.00;;;;2068438;28;20214;-57
2023/12/06 00:47:21;;;;;;;12.40;10.90;;;;;20.80;99778.00;;;;2068634;28;20850;-57
2023/12/06 00:48:21;;;;;;;12.50;10.60;;;;;20.80;99777.00;;;;2068146;28;20249;-58
2023/12/06 00:49:21;;;;;;;14.33;10.60;;;;;20.80;99824.00;;;;2061685;28;20216;-57
2023/12/06 00:50:22;;;;;;;13.60;11.07;;;;;20.80;99781.00;;;;2067203;28;20756;-57
2023/12/06 00:51:22;;;;;;;12.97;11.10;;;;;20.80;99778.00;;;;2067066;28;20217;-56
2023/12/06 00:52:22;;;;;;;12.90;11.30;;;;;20.80;99783.00;;;;2063798;28;20210;-57
2023/12/06 00:53:23;;;;;;;14.20;11.77;;;;;20.80;99779.00;;;;2069114;28;20214;-57
2023/12/06 00:54:23;;;;;;;13.27;10.87;;;;;20.80;99787.00;;;;2059723;28;20222;-56
2023/12/06 00:55:23;;;;;;;12.30;9.63;;;;;20.80;99783.00;;;;2068227;28;20226;-57
2023/12/06 00:56:24;;;;;;;12.63;11.30;;;;;20.80;99782.00;;;;2069338;28;20210;-56
2023/12/06 00:57:24;;;;;;;13.30;11.07;;;;;20.80;99783.00;;;;2066818;28;20225;-58
2023/12/06 00:58:24;;;;;;;13.00;10.73;;;;;20.80;99783.00;;;;2069530;28;20234;-58
2023/12/06 00:59:25;;;;;;;13.70;11.30;;;;;20.80;99785.00;;;;2059487;28;20643;-59
2023/12/06 01:00:25;;;;;;;12.00;10.23;;;;;20.80;99788.00;;;;2066008;28;20229;-60
2023/12/06 01:01:25;;;;;;;12.80;10.63;;;;;20.80;99789.00;;;;2070768;28;20361;-58
2023/12/06 01:02:26;;;;;;;14.50;11.70;;;;;20.70;99787.00;;;;2071193;28;20215;-58
2023/12/06 01:03:26;;;;;;;12.87;11.03;;;;;20.70;99796.00;;;;2070842;28;20218;-58
2023/12/06 01:04:26;;;;;;;12.43;10.40;;;;;20.70;99794.00;;;;2061269;28;20769;-58
2023/12/06 01:05:27;;;;;;;12.20;10.10;;;;;20.70;99792.00;;;;2070219;28;21044;-57
2023/12/06 01:06:27;;;;;;;11.67;10.40;;;;;20.70;99794.00;;;;2071079;28;21087;-57
2023/12/06 01:07:28;;;;;;;12.40;10.93;;;;;20.70;99802.00;;;;2070681;28;21024;-58
2023/12/06 01:08:28;;;;;;;12.30;11.00;;;;;20.40;99790.00;;;;2070122;28;20225;-58
2023/12/06 01:09:28;;;;;;;12.50;10.13;;;;;20.70;99800.00;;;;2059472;28;20218;-57
2023/12/06 01:10:29;;;;;;;12.60;10.77;;;;;20.70;99797.00;;;;2070597;28;20220;-58
2023/12/06 01:11:30;;;;;;;11.50;10.20;;;;;20.70;99806.00;;;;2071188;28;20301;-57
2023/12/06 01:12:30;;;;;;;13.35;10.65;;;;;20.70;99807.00;;;;2068906;28;20214;-57
2023/12/06 01:13:31;;;;;;;13.13;10.03;;;;;20.70;99797.00;;;;2068987;28;20210;-58
2023/12/06 01:14:31;;;;;;;13.40;10.70;;;;;20.70;99806.00;;;;2060777;28;20988;-57
2023/12/06 01:15:32;;;;;;;12.20;10.73;;;;;20.70;99800.00;;;;2070302;28;20230;-57
2023/12/06 01:16:32;;;;;;;12.93;10.70;;;;;20.70;99813.00;;;;2070903;28;20264;-56
2023/12/06 01:17:33;;;;;;;11.60;10.27;;;;;20.70;99812.00;;;;2070230;28;20213;-56
2023/12/06 01:18:33;;;;;;;14.10;10.73;;;;;20.70;99817.00;;;;2069359;28;20228;-57
2023/12/06 01:19:33;;;;;;;12.43;10.17;;;;;20.70;99811.00;;;;2059938;28;20218;-56
2023/12/06 01:20:34;;;;;;;11.40;10.20;;;;;20.70;99818.00;;;;2071074;28;20582;-57
2023/12/06 01:21:34;;;;;;;14.60;10.60;;;;;20.70;99819.00;;;;2071182;28;20698;-57
2023/12/06 01:22:34;;;;;;;11.80;10.33;;;;;20.70;99820.00;;;;2070207;28;20233;-57
2023/12/06 01:23:35;;;;;;;13.20;10.50;;;;;20.70;99823.00;;;;2070745;28;20206;-57
2023/12/06 01:24:35;;;;;;;13.63;11.60;;;;;20.70;99812.00;;;;2060890;28;20236;-55
2023/12/06 01:25:36;;;;;;;12.93;10.57;;;;;20.70;99812.00;;;;2069688;28;20242;-57
2023/12/06 01:26:36;;;;;;;11.93;9.50;;;;;20.70;99806.00;;;;2065522;28;20215;-56
2023/12/06 01:27:36;;;;;;;12.97;10.87;;;;;20.60;99827.00;;;;2069838;28;20301;-57
2023/12/06 01:28:37;;;;;;;13.83;11.53;;;;;20.60;99822.00;;;;2069456;28;20289;-57
2023/12/06 01:29:37;;;;;;;12.40;10.03;;;;;20.60;99822.00;;;;2057868;28;20214;-57
2023/12/06 01:30:37;;;;;;;14.20;11.30;;;;;20.60;99828.00;;;;2070948;28;20920;-56
2023/12/06 01:31:40;;;;;;;12.80;10.50;;;;;20.60;99826.00;;;;2069990;28;20202;-57
2023/12/06 01:32:41;;;;;;;13.60;10.70;;;;;20.60;99830.00;;;;2069142;28;20202;-56
2023/12/06 01:33:41;;;;;;;13.20;9.90;;;;;20.60;99826.00;;;;2068701;28;20213;-56
2023/12/06 01:34:42;;;;;;;12.07;9.73;;;;;20.60;99832.00;;;;2060475;28;20329;-57
2023/12/06 01:35:42;;;;;;;11.70;9.57;;;;;20.60;99826.00;;;;2069626;28;20206;-57
2023/12/06 01:36:43;;;;;;;12.10;10.77;;;;;20.60;99826.00;;;;2067923;28;20296;-57
2023/12/06 01:37:43;;;;;;;11.40;9.43;;;;;20.60;99831.00;;;;2069993;28;20210;-57
2023/12/06 01:38:43;;;;;;;12.70;10.97;;;;;20.60;99834.00;;;;2070326;28;21089;-56
2023/12/06 01:39:44;;;;;;;12.73;11.03;;;;;20.60;99833.00;;;;2063912;28;20218;-56
2023/12/06 01:40:44;;;;;;;12.83;10.60;;;;;20.60;99835.00;;;;2071645;28;20305;-57
2023/12/06 01:41:48;;;;;;;12.87;11.33;;;;;20.60;99841.00;;;;2079767;28;20221;-57
2023/12/06 01:42:49;;;;;;;11.02;9.13;;;;;20.60;99837.00;;;;2075254;28;20214;-56
2023/12/06 01:43:50;;;;;;;11.47;9.90;;;;;20.60;99841.00;;;;2068348;28;20222;-55
2023/12/06 01:44:50;;;;;;;11.60;9.67;;;;;20.60;99842.00;;;;2061267;28;20210;-57
2023/12/06 01:45:51;;;;;;;13.50;10.57;;;;;20.60;99834.00;;;;2070410;28;20214;-57
2023/12/06 01:46:51;;;;;;;12.03;10.73;;;;;20.60;99835.00;;;;2070940;28;20230;-57
2023/12/06 01:47:51;;;;;;;12.20;10.13;;;;;20.60;99840.00;;;;2070010;28;20256;-56
2023/12/06 01:48:52;;;;;;;13.60;10.70;;;;;20.60;99843.00;;;;2063926;28;20210;-56
2023/12/06 01:49:53;;;;;;;12.80;11.07;;;;;20.60;99843.00;;;;2058832;28;20217;-57
2023/12/06 01:50:53;;;;;;;13.05;9.77;;;;;20.60;99837.00;;;;2077303;28;20292;-57
2023/12/06 01:51:54;;;;;;;11.63;10.33;;;;;20.60;99841.00;;;;2069062;28;20274;-56
2023/12/06 01:52:57;;;;;;;14.30;10.20;;;;;20.60;99838.00;;;;2061501;28;20219;-57
2023/12/06 01:53:57;;;;;;;12.95;9.68;;;;;20.60;99843.00;;;;2069125;28;20258;-57
2023/12/06 01:54:58;;;;;;;13.03;11.13;;;;;20.60;99843.00;;;;2061217;28;20218;-57
2023/12/06 01:55:58;;;;;;;13.23;10.07;;;;;20.50;99848.00;;;;2069961;28;20218;-58
2023/12/06 01:56:59;;;;;;;12.93;10.60;;;;;20.60;99889.00;;;;2068859;28;20640;-57
2023/12/06 01:58:00;;;;;;;12.02;9.35;;;;;20.60;99850.00;;;;2079693;28;20583;-56
2023/12/06 01:59:00;;;;;;;13.30;10.30;;;;;20.50;99850.00;;;;2068286;28;20289;-57
2023/12/06 02:00:00;;;;;;;15.10;10.90;;;;;20.50;99847.00;;;;2055603;28;20206;-57
2023/12/06 02:01:01;;;;;;;11.60;10.40;;;;;20.50;99852.00;;;;2068481;28;20276;-58
2023/12/06 02:02:01;;;;;;;11.63;10.20;;;;;20.10;99861.00;;;;2073077;28;20240;-57
2023/12/06 02:03:02;;;;;;;11.90;10.53;;;;;20.50;99828.00;;;;2065731;28;20217;-57
2023/12/06 02:04:02;;;;;;;12.60;9.80;;;;;20.50;99855.00;;;;2070014;28;20218;-58
2023/12/06 02:05:02;;;;;;;13.57;10.90;;;;;20.50;99851.00;;;;2057995;28;20276;-57
2023/12/06 02:06:03;;;;;;;15.60;11.37;;;;;20.50;99854.00;;;;2069853;28;20245;-56
2023/12/06 02:07:03;;;;;;;13.73;10.60;;;;;20.50;99859.00;;;;2070150;28;20284;-56
2023/12/06 02:08:04;;;;;;;10.73;9.63;;;;;20.50;99856.00;;;;2067435;28;20272;-56
2023/12/06 02:09:04;;;;;;;13.10;10.43;;;;;20.50;99856.00;;;;2069644;28;20257;-57
2023/12/06 02:10:05;;;;;;;13.50;10.77;;;;;20.50;99860.00;;;;2058768;28;20229;-58
2023/12/06 02:11:05;;;;;;;13.07;10.10;;;;;20.50;99859.00;;;;2069999;28;20689;-57
2023/12/06 02:12:06;;;;;;;12.10;10.17;;;;;20.50;99860.00;;;;2069768;28;20741;-57
2023/12/06 02:13:06;;;;;;;12.90;10.37;;;;;20.50;99868.00;;;;2068931;28;20229;-57
2023/12/06 02:14:07;;;;;;;13.50;10.67;;;;;20.50;99868.00;;;;2070324;28;20318;-56
2023/12/06 02:15:07;;;;;;;11.73;10.10;;;;;20.50;99858.00;;;;2065857;28;20221;-56
2023/12/06 02:16:08;;;;;;;12.17;9.80;;;;;20.10;99835.00;;;;2085118;28;20213;-56
2023/12/06 02:17:08;;;;;;;12.33;10.50;;;;;20.50;99861.00;;;;2067706;28;20457;-56
2023/12/06 02:18:09;;;;;;;14.97;11.90;;;;;20.50;99869.00;;;;2073768;28;20316;-58
2023/12/06 02:19:12;;;;;;;11.30;9.90;;;;;20.40;99860.00;;;;2071519;28;20682;-57
2023/12/06 02:20:12;;;;;;;13.57;10.85;;;;;20.40;99867.00;;;;2052624;28;20218;-57
2023/12/06 02:21:12;;;;;;;15.10;11.33;;;;;20.40;99865.00;;;;2066899;28;20236;-58
2023/12/06 02:22:13;;;;;;;13.67;10.93;;;;;20.40;99869.00;;;;2059862;28;20607;-57
2023/12/06 02:23:13;;;;;;;12.77;11.33;;;;;20.40;99856.00;;;;2068782;28;20269;-57
2023/12/06 02:24:14;;;;;;;14.63;11.23;;;;;20.40;99863.00;;;;2077522;28;20218;-57
2023/12/06 02:25:14;;;;;;;11.63;10.30;;;;;20.40;99860.00;;;;2067489;28;20659;-57
2023/12/06 02:26:14;;;;;;;13.87;11.40;;;;;20.40;99865.00;;;;2069113;28;20593;-57
2023/12/06 02:27:15;;;;;;;13.63;10.97;;;;;20.40;99869.00;;;;2072040;28;20698;-57
2023/12/06 02:28:15;;;;;;;12.57;10.20;;;;;20.40;99878.00;;;;2060003;28;20290;-57
2023/12/06 02:29:15;;;;;;;12.77;10.80;;;;;20.40;99863.00;;;;2067644;28;20210;-56
2023/12/06 02:30:16;;;;;;;16.17;12.10;;;;;20.40;99875.00;;;;2061107;28;20221;-56
2023/12/06 02:31:16;;;;;;;15.50;11.37;;;;;20.40;99874.00;;;;2069846;28;20221;-56
2023/12/06 02:32:17;;;;;;;12.33;9.93;;;;;20.40;99871.00;;;;2070541;28;20727;-55
2023/12/06 02:33:17;;;;;;;13.83;10.33;;;;;20.40;99878.00;;;;2064758;28;20302;-57
2023/12/06 02:34:19;;;;;;;13.33;11.07;;;;;20.40;99869.00;;;;2065012;28;20219;-57
2023/12/06 02:35:28;;;;;;;14.80;11.45;;;;;20.40;99876.00;;;;2059795;28;20218;-57
2023/12/06 02:36:28;;;;;;;13.40;11.15;;;;;20.40;99881.00;;;;2069922;28;20210;-58
2023/12/06 02:37:29;;;;;;;12.60;10.80;;;;;20.40;99884.00;;;;2061364;28;20242;-57
2023/12/06 02:38:30;;;;;;;13.20;10.60;;;;;20.40;99877.00;;;;2060273;28;20225;-57
2023/12/06 02:39:39;;;;;;;13.30;10.80;;;;;20.40;99878.00;;;;2060697;28;20657;-56
2023/12/06 02:40:39;;;;;;;12.93;10.65;;;;;20.40;99876.00;;;;2069035;28;20595;-57
2023/12/06 02:41:39;;;;;;;14.67;11.53;;;;;20.40;99856.00;;;;2064137;28;20225;-57
2023/12/06 02:42:40;;;;;;;12.03;10.27;;;;;20.40;99875.00;;;;2069808;28;20219;-57
2023/12/06 02:43:40;;;;;;;14.63;12.20;;;;;20.40;99881.00;;;;2069168;28;20218;-57
2023/12/06 02:44:40;;;;;;;14.80;11.53;;;;;20.40;99871.00;;;;2057328;28;20234;-56
2023/12/06 02:45:41;;;;;;;12.70;10.53;;;;;20.40;99881.00;;;;2069037;28;20218;-58
2023/12/06 02:46:41;;;;;;;13.87;11.13;;;;;20.40;99880.00;;;;2054295;28;20222;-56
2023/12/06 02:47:42;;;;;;;11.97;10.07;;;;;20.40;99889.00;;;;2059428;28;20285;-57
2023/12/06 02:48:42;;;;;;;15.80;10.90;;;;;20.40;99881.00;;;;2069757;28;20301;-57
2023/12/06 02:49:42;;;;;;;14.03;11.00;;;;;20.40;99887.00;;;;2060864;28;20586;-57
2023/12/06 02:50:43;;;;;;;12.80;10.77;;;;;20.40;99882.00;;;;2069854;28;20220;-57
2023/12/06 02:51:43;;;;;;;13.40;11.00;;;;;20.40;99888.00;;;;2068351;28;20248;-57
2023/12/06 02:52:43;;;;;;;13.70;11.40;;;;;20.40;99875.00;;;;2069721;28;20718;-57
2023/12/06 02:53:44;;;;;;;14.40;11.23;;;;;20.30;99892.00;;;;2069521;28;20218;-56
2023/12/06 02:54:44;;;;;;;13.60;11.00;;;;;20.30;99887.00;;;;2058776;28;20241;-58
2023/12/06 02:55:45;;;;;;;11.87;10.03;;;;;20.30;99890.00;;;;2068037;28;20214;-57
2023/12/06 02:56:45;;;;;;;13.80;11.30;;;;;20.30;99890.00;;;;2066729;28;20228;-56
2023/12/06 02:57:45;;;;;;;13.23;10.63;;;;;20.30;99894.00;;;;2067866;28;20214;-57
2023/12/06 02:58:45;;;;;;;14.03;10.73;;;;;20.30;99886.00;;;;2070755;28;20216;-58
2023/12/06 02:59:46;;;;;;;13.73;10.77;;;;;20.30;99893.00;;;;2060264;28;20222;-58
2023/12/06 03:00:46;;;;;;;12.73;10.70;;;;;20.30;99896.00;;;;2070348;28;20250;-58
2023/12/06 03:01:47;;;;;;;12.63;11.00;;;;;20.30;99889.00;;;;2069886;28;20261;-54
2023/12/06 03:02:47;;;;;;;13.50;10.60;;;;;20.30;99897.00;;;;2069090;28;20214;-57
2023/12/06 03:03:48;;;;;;;14.23;10.63;;;;;20.30;99891.00;;;;2068878;28;20468;-58
2023/12/06 03:04:48;;;;;;;12.20;9.63;;;;;20.30;99899.00;;;;2057082;28;20218;-56
2023/12/06 03:05:49;;;;;;;15.70;11.20;;;;;20.30;99889.00;;;;2067709;28;20264;-56
2023/12/06 03:06:49;;;;;;;12.23;10.37;;;;;20.30;99889.00;;;;2068962;28;20210;-57
2023/12/06 03:07:49;;;;;;;14.37;11.80;;;;;20.30;99893.00;;;;2069217;28;20225;-57
2023/12/06 03:08:50;;;;;;;13.33;10.77;;;;;20.30;99891.00;;;;2069506;28;20218;-58
2023/12/06 03:09:50;;;;;;;13.00;10.90;;;;;20.30;99882.00;;;;2060229;28;20253;-58
2023/12/06 03:10:50;;;;;;;15.20;11.30;;;;;20.30;99891.00;;;;2070362;28;20214;-59
2023/12/06 03:11:50;;;;;;;13.90;10.90;;;;;20.30;99896.00;;;;2069430;28;20213;-59
2023/12/06 03:12:51;;;;;;;12.57;9.50;;;;;20.30;99895.00;;;;2071043;28;20241;-59
2023/12/06 03:13:51;;;;;;;12.73;10.67;;;;;20.30;99892.00;;;;2070302;28;20216;-55
2023/12/06 03:14:52;;;;;;;14.43;11.13;;;;;20.30;99889.00;;;;2059258;28;20218;-55
2023/12/06 03:15:52;;;;;;;13.27;11.00;;;;;20.30;99893.00;;;;2070928;28;20344;-56
2023/12/06 03:16:52;;;;;;;15.00;11.57;;;;;20.30;99898.00;;;;2070171;28;20284;-58
2023/12/06 03:17:53;;;;;;;14.10;11.60;;;;;20.30;99895.00;;;;2069730;28;20249;-59
2023/12/06 03:18:53;;;;;;;12.97;10.43;;;;;20.30;99905.00;;;;2069851;28;20653;-59
2023/12/06 03:19:53;;;;;;;13.13;11.20;;;;;20.30;99911.00;;;;2064620;28;20214;-55
2023/12/06 03:20:54;;;;;;;13.53;10.90;;;;;20.30;99898.00;;;;2076433;28;20220;-56
2023/12/06 03:21:55;;;;;;;15.40;10.80;;;;;20.30;99898.00;;;;2073943;28;20660;-58
2023/12/06 03:22:55;;;;;;;12.53;9.77;;;;;20.30;99898.00;;;;2066329;28;20508;-59
2023/12/06 03:23:56;;;;;;;15.40;11.53;;;;;20.30;99907.00;;;;2068663;28;20218;-58
2023/12/06 03:24:56;;;;;;;13.87;11.30;;;;;20.30;99905.00;;;;2060656;28;20221;-56
2023/12/06 03:25:56;;;;;;;11.97;9.33;;;;;20.30;99897.00;;;;2070170;28;20221;-57
2023/12/06 03:26:56;;;;;;;13.30;9.90;;;;;20.30;99900.00;;;;2070334;28;20218;-59
2023/12/06 03:27:57;;;;;;;13.30;10.47;;;;;20.30;99904.00;;;;2068658;28;20241;-58
2023/12/06 03:28:57;;;;;;;13.10;11.37;;;;;20.20;99906.00;;;;2070626;28;20933;-59
2023/12/06 03:29:58;;;;;;;13.20;10.33;;;;;20.30;99910.00;;;;2060731;28;20284;-55
2023/12/06 03:31:00;;;;;;;14.90;10.87;;;;;20.30;99911.00;;;;2068241;28;20222;-54
2023/12/06 03:32:01;;;;;;;15.00;11.23;;;;;20.20;99905.00;;;;2068790;28;20721;-57
2023/12/06 03:33:01;;;;;;;12.83;10.90;;;;;20.20;99906.00;;;;2067230;28;20206;-58
2023/12/06 03:34:01;;;;;;;14.37;11.37;;;;;20.20;99906.00;;;;2070762;28;20992;-58
2023/12/06 03:35:02;;;;;;;15.77;11.60;;;;;20.20;99907.00;;;;2056939;28;20214;-58
2023/12/06 03:36:02;;;;;;;13.43;10.70;;;;;20.20;99913.00;;;;2070317;28;20221;-59
2023/12/06 03:37:03;;;;;;;13.23;10.50;;;;;20.20;99908.00;;;;2069956;28;20256;-57
2023/12/06 03:38:03;;;;;;;13.47;10.93;;;;;20.20;99910.00;;;;2068440;28;20285;-58
2023/12/06 03:39:04;;;;;;;12.30;9.70;;;;;20.20;99916.00;;;;2065650;28;20234;-58
2023/12/06 03:40:05;;;;;;;12.93;10.63;;;;;19.80;99910.00;;;;2060476;28;20210;-59
2023/12/06 03:41:05;;;;;;;14.45;10.48;;;;;20.20;99911.00;;;;2070580;28;20627;-58
2023/12/06 03:42:06;;;;;;;12.23;10.93;;;;;20.20;99913.00;;;;2070244;28;20222;-58
2023/12/06 03:43:06;;;;;;;12.97;10.40;;;;;20.20;99917.00;;;;2071064;28;20272;-58
2023/12/06 03:44:06;;;;;;;12.80;10.70;;;;;20.20;99916.00;;;;2070517;28;21096;-58
2023/12/06 03:45:07;;;;;;;13.97;11.80;;;;;20.20;99917.00;;;;2059291;28;20769;-59
2023/12/06 03:46:08;;;;;;;13.63;10.67;;;;;20.20;99913.00;;;;2070688;28;20586;-55
2023/12/06 03:47:08;;;;;;;12.10;10.45;;;;;20.20;99917.00;;;;2069237;28;20218;-57
2023/12/06 03:48:09;;;;;;;12.70;10.33;;;;;20.20;99915.00;;;;2069624;28;20210;-56
2023/12/06 03:49:09;;;;;;;12.80;11.17;;;;;20.20;99925.00;;;;2070605;28;20588;-56
2023/12/06 03:50:09;;;;;;;16.07;11.17;;;;;20.20;99919.00;;;;2060703;28;20214;-55
2023/12/06 03:51:10;;;;;;;14.10;11.00;;;;;20.20;99922.00;;;;2070883;28;20590;-58
2023/12/06 03:52:10;;;;;;;13.70;10.77;;;;;20.20;99919.00;;;;2069590;28;20578;-57
2023/12/06 03:53:10;;;;;;;14.13;10.37;;;;;20.20;99924.00;;;;2070597;28;20274;-58
2023/12/06 03:54:11;;;;;;;12.10;10.80;;;;;20.20;99934.00;;;;2068886;28;20607;-61
2023/12/06 03:55:12;;;;;;;13.88;10.88;;;;;20.20;99923.00;;;;2060957;28;20225;-56
2023/12/06 03:56:12;;;;;;;13.87;10.80;;;;;20.20;99933.00;;;;2069833;28;20219;-57
2023/12/06 03:57:12;;;;;;;13.83;10.60;;;;;20.20;99928.00;;;;2068997;28;20237;-58
2023/12/06 03:58:13;;;;;;;13.20;11.57;;;;;20.20;99929.00;;;;2068114;28;20230;-55
2023/12/06 03:59:14;;;;;;;13.93;11.20;;;;;20.20;99934.00;;;;2067193;28;20225;-57
2023/12/06 04:00:15;;;;;;;13.88;11.60;;;;;20.20;99930.00;;;;2060923;28;20645;-57
2023/12/06 04:01:15;;;;;;;14.10;10.83;;;;;20.20;99941.00;;;;2069267;28;20228;-57
2023/12/06 04:02:17;;;;;;;12.83;11.43;;;;;20.20;99940.00;;;;2070607;28;20461;-57
2023/12/06 04:03:17;;;;;;;14.23;11.40;;;;;20.10;99938.00;;;;2070646;28;20626;-58
2023/12/06 04:04:17;;;;;;;12.97;10.87;;;;;20.10;99941.00;;;;2066031;28;20230;-54
2023/12/06 04:05:18;;;;;;;14.20;11.37;;;;;19.70;99948.00;;;;2058751;28;20249;-55
2023/12/06 04:06:18;;;;;;;13.63;10.83;;;;;20.10;99949.00;;;;2069862;28;20218;-54
2023/12/06 04:07:19;;;;;;;14.70;12.60;;;;;20.10;99946.00;;;;2070275;28;20691;-57
2023/12/06 04:08:19;;;;;;;12.27;10.60;;;;;20.10;99944.00;;;;2067382;28;20702;-58
2023/12/06 04:09:19;;;;;;;15.50;11.83;;;;;20.10;99941.00;;;;2067906;28;20258;-57
2023/12/06 04:10:20;;;;;;;14.50;12.07;;;;;20.10;99941.00;;;;2067361;28;20221;-59
2023/12/06 04:11:20;;;;;;;14.30;11.97;;;;;19.90;99948.00;;;;2072659;28;20276;-58
2023/12/06 04:12:21;;;;;;;15.50;12.40;;;;;20.10;99941.00;;;;2065188;28;20253;-56
2023/12/06 04:13:21;;;;;;;13.70;11.70;;;;;20.10;99944.00;;;;2069856;28;20833;-58
2023/12/06 04:14:22;;;;;;;13.17;11.20;;;;;20.10;99946.00;;;;2062096;28;20214;-59
2023/12/06 04:15:22;;;;;;;13.50;10.83;;;;;20.10;99948.00;;;;2068560;28;20218;-58
2023/12/06 04:16:22;;;;;;;12.23;9.90;;;;;20.10;99944.00;;;;2068600;28;20226;-56
2023/12/06 04:17:23;;;;;;;14.30;11.47;;;;;20.10;99959.00;;;;2070285;28;20237;-55
2023/12/06 04:18:23;;;;;;;14.30;11.57;;;;;20.10;99952.00;;;;2065773;28;20303;-56
2023/12/06 04:19:24;;;;;;;13.70;11.20;;;;;20.10;99955.00;;;;2061149;28;20222;-58
2023/12/06 04:20:24;;;;;;;13.80;11.70;;;;;20.10;99957.00;;;;2068744;28;20210;-59
2023/12/06 04:21:26;;;;;;;14.47;12.30;;;;;20.10;99960.00;;;;2070429;28;20221;-57
2023/12/06 04:22:27;;;;;;;14.40;12.20;;;;;20.10;99959.00;;;;2069947;28;20290;-58
2023/12/06 04:23:28;;;;;;;14.97;12.83;;;;;20.10;99957.00;;;;2068645;28;20744;-56
2023/12/06 04:24:28;;;;;;;12.57;11.20;;;;;20.10;99954.00;;;;2060797;28;20484;-57
2023/12/06 04:25:28;;;;;;;12.70;11.40;;;;;20.10;99956.00;;;;2065179;28;20221;-56
2023/12/06 04:26:29;;;;;;;14.00;11.00;;;;;20.10;99957.00;;;;2070396;28;20214;-57
2023/12/06 04:27:29;;;;;;;13.13;11.13;;;;;20.00;99955.00;;;;2069903;28;20215;-55
2023/12/06 04:28:29;;;;;;;12.80;10.87;;;;;20.10;99956.00;;;;2068775;28;20218;-55
2023/12/06 04:29:30;;;;;;;13.20;10.70;;;;;20.10;99960.00;;;;2059982;28;20214;-57
2023/12/06 04:30:30;;;;;;;13.70;11.87;;;;;20.10;99963.00;;;;2067251;28;20781;-58
2023/12/06 04:31:30;;;;;;;14.37;12.87;;;;;20.10;99963.00;;;;2069829;28;20214;-58
2023/12/06 04:32:31;;;;;;;12.17;10.07;;;;;20.10;99956.00;;;;2070464;28;20209;-58
2023/12/06 04:33:31;;;;;;;12.53;11.20;;;;;20.10;99961.00;;;;2064834;28;22886;-58
2023/12/06 04:34:32;;;;;;;12.23;10.30;;;;;20.00;99962.00;;;;2058146;28;20795;-54
2023/12/06 04:35:32;;;;;;;13.00;11.40;;;;;20.10;99961.00;;;;2071927;28;20229;-57
2023/12/06 04:36:34;;;;;;;12.67;11.33;;;;;20.00;99968.00;;;;2063543;28;20276;-57
2023/12/06 04:37:34;;;;;;;14.50;11.30;;;;;20.00;99968.00;;;;2068533;28;20210;-57
2023/12/06 04:38:35;;;;;;;12.73;10.30;;;;;20.00;99970.00;;;;2070544;28;20761;-58
2023/12/06 04:39:35;;;;;;;12.87;11.03;;;;;20.00;99975.00;;;;2061856;28;22112;-57
2023/12/06 04:40:35;;;;;;;12.03;10.73;;;;;20.00;99969.00;;;;2071479;28;21525;-57
2023/12/06 04:41:36;;;;;;;12.87;10.40;;;;;20.00;99969.00;;;;2071499;28;20391;-57
2023/12/06 04:42:36;;;;;;;12.03;10.47;;;;;20.10;99975.00;;;;2071246;28;20253;-54
2023/12/06 04:43:36;;;;;;;12.93;11.50;;;;;20.10;99976.00;;;;2071293;28;20225;-55
2023/12/06 04:44:37;;;;;;;12.83;10.23;;;;;20.10;99975.00;;;;2060907;28;20221;-56
2023/12/06 04:45:37;;;;;;;13.60;10.30;;;;;20.00;99976.00;;;;2070705;28;20575;-58
2023/12/06 04:46:37;;;;;;;12.73;11.43;;;;;20.00;99972.00;;;;2071108;28;21083;-58
2023/12/06 04:47:38;;;;;;;12.90;11.47;;;;;20.00;99973.00;;;;2070414;28;20213;-56
2023/12/06 04:48:38;;;;;;;12.10;10.57;;;;;20.00;99977.00;;;;2067741;28;20234;-57
2023/12/06 04:49:38;;;;;;;13.10;10.40;;;;;20.00;99978.00;;;;2061711;28;20213;-54
2023/12/06 04:50:39;;;;;;;12.07;10.70;;;;;20.00;99976.00;;;;2072088;28;20288;-55
2023/12/06 04:51:39;;;;;;;12.47;10.53;;;;;20.00;99980.00;;;;2071535;28;20256;-55
2023/12/06 04:52:40;;;;;;;13.00;11.10;;;;;20.00;99982.00;;;;2071966;28;20214;-59
2023/12/06 04:53:40;;;;;;;13.07;11.53;;;;;20.00;99998.00;;;;2070744;28;20294;-58
2023/12/06 04:54:41;;;;;;;12.83;10.97;;;;;20.00;99978.00;;;;2062338;28;20683;-58
2023/12/06 04:55:41;;;;;;;12.43;10.70;;;;;20.00;99971.00;;;;2070783;28;20698;-55